Time;durP1;ratioP1;P1;durP2;ratioP2;P2;SDS_P1;SDS_P2;PMS_P1;PMS_P2;Temp;Humidity;BMP_temperature;BMP_pressure;BME280_temperature;BME280_humidity;BME280_pressure;Samples;Min_cycle;Max_cycle;Signal;HPM_P1;HPM_P2
2024/01/10 16:16:49;;;;;;;16.30;9.13;;;0.30;77.20;;;;;;5098991;27;20333;-62
2024/01/10 16:19:15;;;;;;;14.68;8.95;;;0.00;77.50;;;;;;5100400;28;20380;-61
2024/01/10 16:21:40;;;;;;;14.98;8.80;;;0.00;77.90;;;;;;5099768;28;20031;-61
2024/01/10 16:24:07;;;;;;;14.25;8.07;;;-0.10;79.30;;;;;;5097265;28;20043;-62
2024/01/10 16:26:33;;;;;;;14.15;8.40;;;-0.10;80.40;;;;;;5097615;28;20048;-61
2024/01/10 16:28:59;;;;;;;17.20;9.43;;;-0.10;81.70;;;;;;5098994;28;20394;-62
2024/01/10 16:31:25;;;;;;;18.27;10.82;;;-0.20;83.00;;;;;;5099390;28;20046;-61
2024/01/10 16:33:50;;;;;;;16.52;9.98;;;-0.20;84.30;;;;;;5094756;28;20044;-60
2024/01/10 16:36:16;;;;;;;15.68;10.48;;;-0.20;85.70;;;;;;5092007;28;20097;-61
2024/01/10 16:38:42;;;;;;;18.73;10.23;;;-0.30;87.00;;;;;;5095343;28;20047;-61
2024/01/10 16:41:08;;;;;;;16.58;9.73;;;-0.30;88.80;;;;;;5095874;28;20035;-61
2024/01/10 16:43:34;;;;;;;16.15;10.50;;;-0.40;89.60;;;;;;5088389;28;20043;-61
2024/01/10 16:45:59;;;;;;;17.55;10.20;;;-0.40;90.40;;;;;;5091789;28;20406;-62
2024/01/10 16:48:26;;;;;;;23.60;12.77;;;-0.40;91.00;;;;;;5087894;28;20036;-62
2024/01/10 16:50:51;;;;;;;26.95;13.50;;;-0.40;91.60;;;;;;5091034;28;20040;-62
2024/01/10 16:53:17;;;;;;;23.40;12.45;;;-0.50;92.10;;;;;;5090823;28;20051;-62
2024/01/10 16:55:43;;;;;;;17.52;10.93;;;-0.50;92.70;;;;;;5095316;28;20575;-61
2024/01/10 16:58:09;;;;;;;17.63;10.85;;;-0.50;93.20;;;;;;5096607;28;20126;-62
2024/01/10 17:00:34;;;;;;;17.27;10.15;;;-0.50;93.60;;;;;;5096039;28;20465;-61
2024/01/10 17:03:00;;;;;;;16.10;10.15;;;-0.60;94.10;;;;;;5089027;28;20052;-61
2024/01/10 17:05:26;;;;;;;16.92;10.05;;;-0.60;94.60;;;;;;5099951;28;20039;-61
2024/01/10 17:07:52;;;;;;;18.05;10.70;;;-0.70;95.00;;;;;;5094607;28;20101;-62
2024/01/10 17:10:18;;;;;;;17.92;10.38;;;-0.70;95.30;;;;;;5087378;28;20032;-62
2024/01/10 17:12:44;;;;;;;19.55;11.43;;;-0.70;95.70;;;;;;5092905;28;20032;-60
2024/01/10 17:15:10;;;;;;;19.98;11.85;;;-0.70;96.10;;;;;;5094120;28;20047;-61
2024/01/10 17:17:36;;;;;;;17.42;10.73;;;-0.80;96.40;;;;;;5074843;28;20055;-62
2024/01/10 17:20:03;;;;;;;16.40;10.82;;;-0.80;96.80;;;;;;5090980;28;20032;-62
2024/01/10 17:22:31;;;;;;;15.90;10.98;;;-0.80;97.10;;;;;;5080302;28;20097;-61
2024/01/10 17:24:56;;;;;;;20.65;12.57;;;-0.80;97.40;;;;;;5082547;28;20119;-62
2024/01/10 17:27:22;;;;;;;17.90;11.10;;;-0.90;97.70;;;;;;5080324;28;20166;-61
2024/01/10 17:29:47;;;;;;;18.13;11.10;;;-0.90;98.00;;;;;;5078567;28;20040;-61
2024/01/10 17:32:13;;;;;;;17.40;10.50;;;-0.90;98.20;;;;;;5078063;28;20436;-63
2024/01/10 17:34:39;;;;;;;15.25;10.20;;;-1.00;98.50;;;;;;5080451;28;20052;-60
2024/01/10 17:37:04;;;;;;;17.38;11.35;;;-1.00;98.70;;;;;;5081973;28;20036;-61
2024/01/10 17:39:30;;;;;;;20.65;13.27;;;-1.00;98.90;;;;;;5077812;28;20116;-61
2024/01/10 17:41:55;;;;;;;19.48;12.38;;;-1.10;99.20;;;;;;5078797;28;20158;-62
2024/01/10 17:44:21;;;;;;;19.88;12.20;;;-1.10;99.40;;;;;;5085497;28;20462;-61
2024/01/10 17:46:48;;;;;;;20.30;13.40;;;-1.20;99.60;;;;;;5072355;28;20111;-61
2024/01/10 17:49:13;;;;;;;23.30;14.35;;;-1.20;99.90;;;;;;5076044;28;20487;-63
2024/01/10 17:51:39;;;;;;;21.27;14.00;;;-1.20;99.90;;;;;;5076847;28;20041;-60
2024/01/10 17:54:06;;;;;;;21.17;12.82;;;-1.20;99.90;;;;;;5078135;28;20040;-61
2024/01/10 17:56:33;;;;;;;18.52;12.20;;;-1.20;99.90;;;;;;5088123;28;20044;-62
2024/01/10 17:59:00;;;;;;;18.98;12.15;;;-1.30;99.90;;;;;;5081922;28;20502;-61
2024/01/10 18:01:25;;;;;;;19.67;13.23;;;-1.40;99.90;;;;;;5061157;28;20048;-62
2024/01/10 18:03:51;;;;;;;17.55;11.45;;;-1.40;99.90;;;;;;5083584;28;20047;-62
2024/01/10 18:06:17;;;;;;;22.13;11.85;;;-1.40;99.90;;;;;;5083230;28;20448;-62
2024/01/10 18:08:42;;;;;;;18.83;12.40;;;-1.40;99.90;;;;;;5085528;28;20067;-62
2024/01/10 18:11:08;;;;;;;20.55;12.80;;;-1.50;99.90;;;;;;5086448;28;20053;-62
2024/01/10 18:13:34;;;;;;;18.00;11.75;;;-1.50;99.90;;;;;;5079713;28;20048;-62
2024/01/10 18:16:02;;;;;;;17.77;11.98;;;-1.50;99.90;;;;;;5078374;28;20433;-62
2024/01/10 18:18:32;;;;;;;20.42;12.10;;;-1.50;99.90;;;;;;5081714;28;20046;-61
2024/01/10 18:20:59;;;;;;;15.75;11.20;;;-1.50;99.90;;;;;;5082870;28;20044;-61
2024/01/10 18:23:25;;;;;;;20.23;12.48;;;-1.60;99.90;;;;;;5086133;28;20032;-62
2024/01/10 18:25:50;;;;;;;18.92;12.27;;;-1.60;99.90;;;;;;5087778;28;20056;-61
2024/01/10 18:28:16;;;;;;;17.52;12.00;;;-1.60;99.90;;;;;;5085709;28;20044;-61
2024/01/10 18:30:42;;;;;;;17.58;12.25;;;-1.60;99.90;;;;;;5080884;28;20044;-60
2024/01/10 18:33:09;;;;;;;20.02;13.25;;;-1.60;99.90;;;;;;5081569;28;20358;-62
2024/01/10 18:35:35;;;;;;;20.55;12.85;;;-1.60;99.90;;;;;;5080596;28;20044;-60
2024/01/10 18:38:00;;;;;;;20.45;12.90;;;-1.70;99.90;;;;;;5082793;28;20066;-61
2024/01/10 18:40:26;;;;;;;21.10;12.80;;;-1.70;99.90;;;;;;5078497;28;20063;-62
2024/01/10 18:42:52;;;;;;;24.65;13.50;;;-1.70;99.90;;;;;;5082839;28;20043;-61
2024/01/10 18:45:18;;;;;;;26.17;14.25;;;-1.70;99.90;;;;;;5079830;28;20049;-62
2024/01/10 18:47:43;;;;;;;21.88;14.02;;;-1.70;99.90;;;;;;5081609;28;20063;-62
2024/01/10 18:50:09;;;;;;;20.90;13.77;;;-1.70;99.90;;;;;;5085197;28;20503;-61
2024/01/10 18:52:35;;;;;;;23.15;15.43;;;-1.70;99.90;;;;;;5083500;28;20044;-61
2024/01/10 18:55:00;;;;;;;20.27;12.52;;;-1.80;99.90;;;;;;5081733;28;20044;-61
2024/01/10 18:57:26;;;;;;;21.60;13.48;;;-1.80;99.90;;;;;;5077823;28;20104;-61
2024/01/10 18:59:51;;;;;;;19.88;12.90;;;-1.80;99.90;;;;;;5084271;28;20080;-61
2024/01/10 19:02:17;;;;;;;22.88;13.88;;;-1.80;99.90;;;;;;5083652;28;20138;-62
2024/01/10 19:04:43;;;;;;;20.05;14.13;;;-1.80;99.90;;;;;;5083125;28;20040;-61
2024/01/10 19:07:08;;;;;;;20.58;13.38;;;-1.90;99.90;;;;;;5077956;28;20432;-61
2024/01/10 19:09:36;;;;;;;21.05;13.98;;;-1.90;99.90;;;;;;5081560;28;20032;-61
2024/01/10 19:12:04;;;;;;;23.00;14.30;;;-1.90;99.90;;;;;;5081992;28;20048;-64
2024/01/10 19:14:33;;;;;;;19.90;14.70;;;-2.00;99.90;;;;;;5079233;28;20116;-63
2024/01/10 19:16:59;;;;;;;21.63;14.43;;;-1.90;99.90;;;;;;5086134;28;20040;-63
2024/01/10 19:19:26;;;;;;;21.65;14.98;;;-1.90;99.90;;;;;;5078530;28;20040;-61
2024/01/10 19:21:52;;;;;;;23.88;15.27;;;-1.90;99.90;;;;;;5083800;28;20036;-64
2024/01/10 19:24:18;;;;;;;22.35;14.82;;;-2.00;99.90;;;;;;5083478;28;20127;-61
2024/01/10 19:26:44;;;;;;;21.98;15.30;;;-2.00;99.90;;;;;;5086073;28;20170;-62
2024/01/10 19:29:10;;;;;;;23.73;15.25;;;-2.00;99.90;;;;;;5083144;28;20059;-61
2024/01/10 19:31:36;;;;;;;23.00;15.35;;;-2.00;99.90;;;;;;5075229;28;20487;-63
2024/01/10 19:34:02;;;;;;;22.20;15.60;;;-2.00;99.90;;;;;;5078706;28;20093;-63
2024/01/10 19:36:28;;;;;;;21.77;14.95;;;-2.10;99.90;;;;;;5082857;28;20032;-62
2024/01/10 19:38:54;;;;;;;22.35;15.32;;;-2.10;99.90;;;;;;5066409;28;20049;-63
2024/01/10 19:41:24;;;;;;;22.95;15.63;;;-2.10;99.90;;;;;;5082972;28;20057;-61
2024/01/10 19:43:51;;;;;;;23.52;16.25;;;-2.10;99.90;;;;;;5074641;28;20066;-61
2024/01/10 19:46:17;;;;;;;21.75;14.40;;;-2.10;99.90;;;;;;5078478;28;20052;-62
2024/01/10 19:48:44;;;;;;;22.58;15.30;;;-2.20;99.90;;;;;;5078508;28;20741;-64
2024/01/10 19:51:10;;;;;;;23.45;15.32;;;-2.10;99.90;;;;;;5080240;28;20111;-61
2024/01/10 19:53:36;;;;;;;21.63;14.52;;;-2.10;99.90;;;;;;5061597;28;20051;-62
2024/01/10 19:56:02;;;;;;;22.50;14.60;;;-2.10;99.90;;;;;;5071348;28;20129;-61
2024/01/10 19:58:29;;;;;;;22.27;14.68;;;-2.20;99.90;;;;;;5078305;28;20051;-62
2024/01/10 20:00:55;;;;;;;24.70;15.55;;;-2.20;99.90;;;;;;5078185;28;20040;-62
2024/01/10 20:03:21;;;;;;;21.92;14.32;;;-2.20;99.90;;;;;;5077612;28;20491;-61
2024/01/10 20:05:47;;;;;;;23.15;15.50;;;-2.20;99.90;;;;;;5076311;28;20038;-63
2024/01/10 20:08:13;;;;;;;24.58;15.85;;;-2.20;99.90;;;;;;5078068;28;20564;-63
2024/01/10 20:10:39;;;;;;;23.73;15.35;;;-2.20;99.90;;;;;;5077789;28;20043;-62
2024/01/10 20:13:06;;;;;;;23.77;16.52;;;-2.20;99.90;;;;;;5077120;28;20104;-62
2024/01/10 20:15:32;;;;;;;24.15;15.93;;;-2.20;99.90;;;;;;5075597;28;20063;-62
2024/01/10 20:17:58;;;;;;;21.38;14.93;;;-2.20;99.90;;;;;;5081849;28;20119;-61
2024/01/10 20:20:24;;;;;;;21.92;15.65;;;-2.30;99.90;;;;;;5078335;28;20118;-63
2024/01/10 20:22:50;;;;;;;24.90;15.75;;;-2.30;99.90;;;;;;5079731;28;20115;-61
2024/01/10 20:25:15;;;;;;;26.30;16.88;;;-2.30;99.90;;;;;;5074725;28;20040;-62
2024/01/10 20:27:41;;;;;;;23.98;16.30;;;-2.30;99.90;;;;;;5076221;28;20538;-61
2024/01/10 20:30:08;;;;;;;25.02;16.55;;;-2.30;99.90;;;;;;5063539;28;20101;-62
2024/01/10 20:32:34;;;;;;;24.90;16.63;;;-2.30;99.90;;;;;;5076496;28;20054;-63
2024/01/10 20:35:00;;;;;;;25.45;16.80;;;-2.40;99.90;;;;;;5080848;28;21211;-62
2024/01/10 20:37:25;;;;;;;38.28;20.75;;;-2.40;99.90;;;;;;5061462;28;21987;-62
2024/01/10 20:39:51;;;;;;;42.63;22.10;;;-2.40;99.90;;;;;;5077941;28;20135;-62
2024/01/10 20:42:17;;;;;;;40.30;22.05;;;-2.40;99.90;;;;;;5075117;28;20149;-63
2024/01/10 20:44:47;;;;;;;36.10;19.67;;;-2.50;99.90;;;;;;5079030;28;20031;-62
2024/01/10 20:47:14;;;;;;;40.42;21.08;;;-2.50;99.90;;;;;;5076751;28;20407;-64
2024/01/10 20:49:41;;;;;;;35.25;19.65;;;-2.50;99.90;;;;;;5074018;28;20044;-62
2024/01/10 20:52:07;;;;;;;37.05;20.85;;;-2.50;99.90;;;;;;5079900;28;20189;-63
2024/01/10 20:54:34;;;;;;;32.00;20.50;;;-2.50;99.90;;;;;;5081917;28;20028;-62
2024/01/10 20:56:59;;;;;;;31.95;21.80;;;-2.50;99.90;;;;;;5080606;28;20032;-63
2024/01/10 20:59:25;;;;;;;27.35;19.10;;;-2.50;99.90;;;;;;5075004;28;20032;-63
2024/01/10 21:01:51;;;;;;;29.23;19.20;;;-2.50;99.90;;;;;;5076386;28;20069;-61
2024/01/10 21:04:16;;;;;;;28.00;18.73;;;-2.50;99.90;;;;;;5085436;28;20032;-61
2024/01/10 21:06:42;;;;;;;26.88;17.55;;;-2.60;99.90;;;;;;5085216;28;20479;-62
2024/01/10 21:09:08;;;;;;;25.00;17.02;;;-2.60;99.90;;;;;;5082863;28;20071;-62
2024/01/10 21:11:34;;;;;;;27.55;18.88;;;-2.60;99.90;;;;;;5079973;28;20054;-62
2024/01/10 21:14:01;;;;;;;28.65;19.38;;;-2.60;99.90;;;;;;5081632;28;20040;-61
2024/01/10 21:16:26;;;;;;;28.70;19.48;;;-2.60;99.90;;;;;;5083169;28;20043;-62
2024/01/10 21:18:52;;;;;;;29.23;19.00;;;-2.70;99.90;;;;;;5081411;28;20036;-62
2024/01/10 21:21:18;;;;;;;28.45;18.52;;;-2.60;99.90;;;;;;5079231;28;20056;-61
2024/01/10 21:23:44;;;;;;;29.73;19.45;;;-2.70;99.90;;;;;;5083928;28;20025;-62
2024/01/10 21:26:09;;;;;;;29.58;18.40;;;-2.70;99.90;;;;;;5083831;28;20044;-62
2024/01/10 21:28:35;;;;;;;28.30;18.27;;;-2.70;99.90;;;;;;5083479;28;20127;-62
2024/01/10 21:31:01;;;;;;;29.10;19.45;;;-2.70;99.90;;;;;;5079526;28;20032;-60
2024/01/10 21:33:26;;;;;;;29.67;19.55;;;-2.70;99.90;;;;;;5084654;28;20039;-60
2024/01/10 21:35:52;;;;;;;29.58;19.52;;;-2.70;99.90;;;;;;5077832;28;20388;-62
2024/01/10 21:38:17;;;;;;;29.42;19.08;;;-2.70;99.90;;;;;;5087028;28;20111;-61
2024/01/10 21:40:43;;;;;;;30.45;19.80;;;-2.70;99.90;;;;;;5086296;28;20074;-60
2024/01/10 21:43:09;;;;;;;29.65;20.05;;;-2.80;99.90;;;;;;5079241;28;20405;-61
2024/01/10 21:45:34;;;;;;;29.88;19.75;;;-2.80;99.90;;;;;;5081662;28;20036;-62
2024/01/10 21:48:00;;;;;;;28.17;19.65;;;-2.80;99.90;;;;;;5081244;28;20046;-62
2024/01/10 21:50:27;;;;;;;32.38;20.40;;;-2.80;99.90;;;;;;5077384;28;20064;-62
2024/01/10 21:52:52;;;;;;;28.67;19.05;;;-2.80;99.90;;;;;;5079892;28;20487;-61
2024/01/10 21:55:18;;;;;;;33.53;21.42;;;-2.80;99.90;;;;;;5079083;28;20118;-61
2024/01/10 21:57:43;;;;;;;32.05;20.58;;;-2.80;99.90;;;;;;5082271;28;20041;-62
2024/01/10 22:00:10;;;;;;;29.77;19.13;;;-2.80;99.90;;;;;;5082862;28;20035;-61
2024/01/10 22:02:36;;;;;;;28.90;19.60;;;-2.90;99.90;;;;;;5083703;28;20044;-61
2024/01/10 22:05:03;;;;;;;30.20;19.95;;;-2.90;99.90;;;;;;5079768;28;20659;-61
2024/01/10 22:07:28;;;;;;;28.98;19.50;;;-2.90;99.90;;;;;;5078919;28;20043;-61
2024/01/10 22:09:54;;;;;;;31.88;21.05;;;-2.90;99.90;;;;;;5079282;28;20157;-61
2024/01/10 22:12:20;;;;;;;33.80;21.98;;;-2.90;99.90;;;;;;5083636;28;20044;-59
2024/01/10 22:14:45;;;;;;;33.10;22.05;;;-2.90;99.90;;;;;;5077100;28;20056;-61
2024/01/10 22:17:11;;;;;;;31.95;20.70;;;-2.90;99.90;;;;;;5075618;28;20068;-60
2024/01/10 22:19:36;;;;;;;29.90;20.08;;;-2.90;99.90;;;;;;5080115;28;20035;-60
2024/01/10 22:22:03;;;;;;;29.77;20.00;;;-2.90;99.90;;;;;;5080575;28;20029;-60
2024/01/10 22:24:29;;;;;;;28.92;19.42;;;-2.90;99.90;;;;;;5079380;28;20044;-60
2024/01/10 22:26:54;;;;;;;31.00;19.55;;;-2.90;99.90;;;;;;5081045;28;20368;-60
2024/01/10 22:29:20;;;;;;;29.25;19.60;;;-2.90;99.90;;;;;;5078840;28;20047;-61
2024/01/10 22:31:47;;;;;;;31.10;20.13;;;-2.90;99.90;;;;;;5083498;28;20158;-59
2024/01/10 22:34:13;;;;;;;30.13;20.80;;;-2.90;99.90;;;;;;5081061;28;20044;-60
2024/01/10 22:36:38;;;;;;;30.90;21.27;;;-2.90;99.90;;;;;;5082015;28;20093;-61
2024/01/10 22:39:04;;;;;;;34.03;21.65;;;-2.90;99.90;;;;;;5081273;28;20048;-61
2024/01/10 22:41:30;;;;;;;35.55;21.45;;;-2.90;99.90;;;;;;5081320;28;20054;-60
2024/01/10 22:43:55;;;;;;;29.55;20.50;;;-3.00;99.90;;;;;;5082418;28;20410;-60
2024/01/10 22:46:21;;;;;;;31.30;20.98;;;-3.00;99.90;;;;;;5082471;28;20774;-61
2024/01/10 22:48:47;;;;;;;32.80;22.95;;;-3.00;99.90;;;;;;5082178;28;20044;-60
2024/01/10 22:51:12;;;;;;;31.50;21.48;;;-3.00;99.90;;;;;;5084005;28;20103;-61
2024/01/10 22:53:38;;;;;;;32.63;21.95;;;-3.00;99.90;;;;;;5081168;28;20131;-60
2024/01/10 22:56:05;;;;;;;32.00;21.52;;;-3.00;99.90;;;;;;5082214;28;20489;-61
2024/01/10 22:58:30;;;;;;;34.20;20.98;;;-3.10;99.90;;;;;;5079469;28;20051;-62
2024/01/10 23:00:56;;;;;;;34.53;22.33;;;-3.10;99.90;;;;;;5081859;28;20042;-61
2024/01/10 23:03:22;;;;;;;32.20;21.33;;;-3.10;99.90;;;;;;5081391;28;20039;-61
2024/01/10 23:05:47;;;;;;;33.22;21.95;;;-3.10;99.90;;;;;;5083963;28;20044;-61
2024/01/10 23:08:13;;;;;;;33.60;22.15;;;-3.10;99.90;;;;;;5080948;28;20042;-61
2024/01/10 23:10:40;;;;;;;37.60;22.42;;;-3.10;99.90;;;;;;5084484;28;20047;-60
2024/01/10 23:13:06;;;;;;;34.80;22.80;;;-3.20;99.90;;;;;;5081589;28;20055;-61
2024/01/10 23:15:32;;;;;;;31.20;21.25;;;-3.20;99.90;;;;;;5082238;28;20105;-61
2024/01/10 23:17:58;;;;;;;33.80;21.60;;;-3.20;99.90;;;;;;5080978;28;20044;-61
2024/01/10 23:20:24;;;;;;;32.42;21.75;;;-3.20;99.90;;;;;;5079771;28;20063;-61
2024/01/10 23:22:49;;;;;;;29.35;20.42;;;-3.30;99.90;;;;;;5081065;28;20596;-61
2024/01/10 23:25:15;;;;;;;32.58;19.92;;;-3.30;99.90;;;;;;5082534;28;20062;-60
2024/01/10 23:27:42;;;;;;;29.42;20.88;;;-3.30;99.90;;;;;;5081536;28;20036;-61
2024/01/10 23:30:10;;;;;;;33.35;21.92;;;-3.30;99.90;;;;;;5081085;28;20406;-61
2024/01/10 23:32:36;;;;;;;32.25;20.25;;;-3.30;99.90;;;;;;5079765;28;20052;-60
2024/01/10 23:35:02;;;;;;;30.52;20.25;;;-3.30;99.90;;;;;;5063063;28;20507;-61
2024/01/10 23:37:28;;;;;;;30.92;20.95;;;-3.30;99.90;;;;;;5080279;28;20044;-61
2024/01/10 23:39:54;;;;;;;30.73;20.83;;;-3.30;99.90;;;;;;5079424;28;20032;-61
2024/01/10 23:42:19;;;;;;;29.42;20.30;;;-3.30;99.90;;;;;;5080610;28;20388;-60
2024/01/10 23:44:45;;;;;;;30.45;21.20;;;-3.40;99.90;;;;;;5079735;28;20051;-60
2024/01/10 23:47:11;;;;;;;32.47;21.48;;;-3.40;99.90;;;;;;5081050;28;20047;-61
2024/01/10 23:49:37;;;;;;;31.92;21.83;;;-3.40;99.90;;;;;;5079905;28;20041;-61
2024/01/10 23:52:03;;;;;;;31.10;21.45;;;-3.50;99.90;;;;;;5081922;28;20032;-60
2024/01/10 23:54:28;;;;;;;32.03;21.17;;;-3.50;99.90;;;;;;5080007;28;20110;-60
2024/01/10 23:56:54;;;;;;;33.22;21.55;;;-3.50;99.90;;;;;;5080145;28;20143;-61
2024/01/10 23:59:20;;;;;;;31.00;21.33;;;-3.50;99.90;;;;;;5080899;28;20085;-60
